Date,TemperatureHighF,TemperatureAvgF,TemperatureLowF,DewpointHighF,DewpointAvgF,DewpointLowF,HumidityHigh,HumidityAvg,HumidityLow,PressureMaxIn,PressureMinIn,WindSpeedMaxMPH,WindSpeedAvgMPH,GustSpeedMaxMPH,PrecipitationSumIn
2013-1-1,73,70,68,70,67,65,92,89,83,30.11,30.01,23,11,30,0.28
2013-1-2,72,70,69,69,67,65,94,90,86,30.07,29.97,22,10,28,0.40
2013-1-3,74,70,68,69,67,64,95,90,82,30.08,29.98,30,11,32,0.75
2013-1-4,76,71,70,68,66,64,87,83,77,30.12,30.02,25,12,43,0.03
2013-1-5,74,71,69,68,66,65,90,85,79,30.14,30.05,30,14,39,0.09
2013-1-6,77,73,70,69,67,65,87,81,72,30.13,30.00,27,12,39,0.01
2013-1-7,78,73,70,69,67,65,87,82,73,30.08,29.96,24,11,31,0.00
2013-1-8,78,72,68,69,66,65,91,84,74,30.01,29.89,22,10,26,0.12
2013-1-9,78,72,69,69,67,66,91,85,74,30.00,29.90,22,10,30,0.11
2013-1-10,83,73,70,70,66,64,86,79,66,29.99,29.91,16,8,29,0.00
2013-1-11,77,72,69,68,66,64,89,82,71,29.97,29.86,17,8,32,0.00
2013-1-12,79,73,70,71,68,66,90,84,73,29.96,29.87,13,4,19,0.01
2013-1-13,82,74,69,70,68,66,92,82,65,29.97,29.91,9,2,9,0.00
2013-1-14,77,71,68,72,68,66,95,90,78,29.96,29.85,22,6,34,0.27
2013-1-15,77,70,67,68,64,57,93,81,67,29.94,29.85,18,5,18,0.01
2013-1-16,79,70,66,66,60,53,80,70,59,29.94,29.83,18,4,21,0.00
2013-1-17,75,69,66,65,62,60,86,78,72,29.91,29.81,16,4,18,0.01
2013-1-18,78,70,67,65,61,55,82,73,57,29.94,29.82,21,6,34,0.00
2013-1-19,75,69,66,61,56,54,72,64,55,30.02,29.90,20,7,32,0.00
2013-1-20,75,70,67,60,58,56,74,68,57,30.06,29.96,25,10,31,0.00
2013-1-21,77,71,68,64,61,58,80,72,62,30.12,30.02,24,10,27,0.00
2013-1-22,78,72,69,68,64,61,83,76,65,30.13,30.03,21,8,25,0.00
2013-1-23,78,72,68,69,65,60,90,80,71,30.07,29.99,18,6,22,0.10
2013-1-24,72,69,67,70,67,65,94,91,87,30.06,29.99,11,3,17,0.49
2013-1-25,78,72,69,70,66,64,88,83,72,30.06,29.97,10,3,13,0.01
2013-1-26,74,71,68,68,65,63,85,81,75,30.02,29.92,12,3,18,0.00
2013-1-27,76,72,64,70,67,61,91,83,78,29.97,29.86,26,8,33,0.47
2013-1-28,75,69,64,70,65,62,94,89,79,29.97,29.88,20,4,25,1.24
2013-1-29,78,72,68,69,66,65,91,84,71,30.02,29.91,10,2,18,0.15
2013-1-30,80,72,68,70,66,64,88,82,68,30.06,29.98,12,4,15,0.05
2013-1-31,76,72,70,69,66,65,88,83,77,30.80,30.02,18,8,25,0.00
2013-2-1,77,72,68,65,63,60,84,74,62,30.12,30.04,22,10,30,0.00
2013-2-2,78,72,69,65,63,61,82,73,60,30.15,30.05,22,9,25,0.00
2013-2-3,77,70,67,63,61,58,80,71,61,30.17,30.08,22,9,30,0.00
2013-2-4,76,71,69,66,62,58,80,72,65,30.13,30.03,29,13,32,0.00
2013-2-5,78,71,68,65,62,59,79,74,61,30.09,30.01,22,8,26,0.00
2013-2-6,77,71,68,69,66,62,89,83,74,30.09,30.01,20,8,25,0.12
2013-2-7,79,72,70,70,67,66,88,84,73,30.12,30.02,16,7,22,0.01
2013-2-8,80,73,69,69,66,64,86,80,68,30.12,30.03,11,5,19,0.00
2013-2-9,79,72,69,68,66,63,88,80,67,30.14,30.04,17,7,25,0.00
2013-2-10,77,72,69,70,66,63,87,81,73,30.19,30.07,17,9,28,0.04
2013-2-11,74,70,68,68,65,62,91,84,79,30.20,30.12,16,10,31,0.22
2013-2-12,75,70,67,65,61,57,84,75,68,30.19,30.09,17,9,30,0.03
2013-2-13,76,70,67,63,59,56,75,68,60,30.14,30.01,18,8,27,0.00
2013-2-14,76,70,67,64,61,57,79,73,64,30.10,30.00,15,8,23,0.00
2013-2-15,79,72,68,68,64,60,81,75,62,30.11,30.00,17,9,26,0.00
2013-2-16,79,72,69,65,63,59,83,73,60,30.13,30.05,26,12,39,0.00
2013-2-17,78,71,68,64,62,60,82,73,59,30.17,30.05,24,12,40,0.00
2013-2-18,78,72,68,65,62,59,83,71,58,30.15,30.06,29,12,34,0.04
2013-2-19,77,70,66,65,62,57,89,76,63,30.15,30.04,25,11,30,0.19
2013-2-20,78,72,68,67,64,62,87,77,64,30.16,30.05,24,11,32,0.02
2013-2-21,75,70,68,68,65,62,91,84,74,30.14,30.08,24,10,32,0.11
2013-2-22,77,71,68,69,66,64,91,86,72,30.13,30.04,22,10,36,0.24
2013-2-23,78,72,69,68,65,63,87,81,69,30.13,30.05,21,10,31,0.10
2013-2-24,78,71,69,67,64,61,84,77,64,30.12,30.02,26,10,32,0.03
2013-2-25,77,71,68,67,64,61,84,78,67,30.15,30.05,22,10,34,0.01
2013-2-26,78,72,69,66,64,62,84,76,63,30.16,30.08,22,10,30,0.00
2013-2-27,79,72,68,65,62,58,80,70,54,30.18,30.09,23,11,30,0.00
2013-2-28,79,72,69,65,61,58,79,70,51,30.19,30.10,22,11,31,0.00
2013-3-1,78,71,68,63,60,55,77,68,54,30.17,30.07,23,11,29,0.00
2013-3-2,79,72,68,62,60,58,80,68,50,30.19,30.07,23,11,34,0.00
2013-3-3,78,72,68,62,59,55,76,65,50,30.18,30.10,23,10,34,0.00
2013-3-4,77,71,68,63,59,55,75,66,55,30.18,30.10,18,10,27,0.00
2013-3-5,79,72,68,64,60,55,81,66,52,30.14,30.06,18,9,25,0.00
2013-3-6,80,72,68,65,64,62,85,76,61,30.14,30.05,17,7,20,0.00
2013-3-7,82,73,68,67,65,63,87,76,56,30.10,29.98,10,4,14,0.00
2013-3-8,80,72,67,67,64,53,88,77,44,30.03,29.88,13,4,19,0.00
2013-3-9,78,72,67,71,68,63,91,85,75,29.94,29.85,20,8,24,0.34
2013-3-10,72,67,64,68,65,62,95,92,86,30.01,29.86,21,7,28,1.41
2013-3-11,79,70,64,68,64,61,94,81,65,30.06,29.95,12,4,14,0.28
2013-3-12,74,70,68,67,63,59,84,77,68,30.07,29.97,13,5,18,0.01
2013-3-13,77,70,66,64,61,59,82,73,61,30.09,29.99,13,5,19,0.01
2013-3-14,78,70,67,66,63,61,86,79,64,30.07,29.96,8,2,10,0.00
2013-3-15,76,70,66,64,60,58,81,72,60,29.99,29.88,22,7,26,0.00
2013-3-16,74,69,66,62,57,54,82,68,55,30.00,29.89,21,7,27,0.00
2013-3-17,76,68,64,59,58,56,82,70,54,30.03,29.93,17,6,23,0.00
2013-3-18,76,69,64,63,60,57,81,73,60,30.03,29.93,16,4,17,0.00
2013-3-19,79,72,66,66,62,59,82,73,58,30.01,29.93,12,3,15,0.00
2013-3-20,79,73,68,70,66,62,87,79,64,30.06,29.94,9,2,14,0.00
2013-3-21,81,74,70,70,67,64,85,79,65,30.06,29.96,13,4,18,0.00
2013-3-22,78,73,68,70,68,65,92,85,73,30.02,29.93,22,8,28,0.23
2013-3-23,73,69,66,68,65,63,91,87,79,30.03,29.92,19,9,26,0.07
2013-3-24,69,68,67,68,66,64,95,93,89,30.04,29.93,19,7,21,0.88
2013-3-25,80,72,68,72,68,66,94,87,74,31.95,29.94,10,5,16,0.01
2013-3-26,80,73,69,70,67,66,90,83,70,30.04,29.94,11,6,15,0.00
2013-3-27,77,71,68,70,67,64,91,86,77,30.04,29.93,12,6,19,0.01
2013-3-28,79,72,68,69,66,64,89,82,70,30.05,29.96,16,8,24,0.01
2013-3-29,76,71,68,68,65,63,92,83,73,30.06,29.98,19,7,23,0.17
2013-3-30,74,70,67,68,64,-100,91,84,73,30.78,29.97,19,6,26,0.15
2013-3-31,75,68,66,61,57,53,80,68,53,30.73,29.99,22,9,30,0.01
2013-4-1,73,67,65,60,57,53,81,69,59,30.01,29.92,18,7,23,0.02
2013-4-2,76,69,65,59,57,54,76,66,51,30.09,29.96,16,6,22,0.02
2013-4-3,79,71,65,65,61,58,79,72,59,30.08,29.99,16,5,17,0.00
2013-4-4,81,73,68,69,65,62,87,76,63,30.09,29.98,10,5,16,0.00
2013-4-5,80,74,69,69,66,64,87,79,65,30.14,30.01,15,7,21,0.00
2013-4-6,86,75,72,72,70,68,90,83,63,30.16,30.06,22,7,23,0.00
2013-4-7,82,74,71,72,69,67,89,84,71,30.16,30.07,14,6,24,0.00
2013-4-8,81,74,70,69,68,66,89,80,65,30.11,29.98,11,6,19,0.00
2013-4-9,84,75,70,71,68,65,87,78,61,30.08,29.98,15,6,21,0.00
2013-4-10,84,75,70,71,68,67,90,81,64,30.06,29.97,16,7,24,0.00
2013-4-11,84,75,70,72,68,66,89,80,62,30.04,29.94,12,3,17,0.00
2013-4-12,83,75,72,71,68,67,88,80,60,29.98,29.90,10,3,13,0.00
2013-4-13,79,74,71,72,70,67,92,86,72,29.96,29.84,15,4,21,0.05
2013-4-14,79,73,69,72,69,67,94,89,77,29.96,29.86,18,7,23,0.48
2013-4-15,78,73,69,72,69,66,95,87,74,30.04,29.91,11,2,13,0.41
2013-4-16,83,75,69,71,68,66,90,81,64,30.11,29.98,11,3,17,0.02
2013-4-17,82,75,71,72,69,66,89,82,71,30.16,30.04,16,7,22,0.00
2013-4-18,82,74,71,71,68,66,86,80,68,30.14,30.07,22,8,25,0.00
2013-4-19,80,74,71,71,68,66,89,83,73,30.12,30.02,17,7,24,0.00
2013-4-20,83,76,71,70,68,66,87,77,63,30.09,30.00,10,2,17,0.00
2013-4-21,81,74,71,71,68,65,91,82,70,30.05,29.96,19,5,19,0.20
2013-4-22,81,75,72,73,70,68,93,86,75,30.04,29.95,17,4,19,0.23
2013-4-23,82,75,71,73,70,68,90,84,73,30.07,29.97,15,6,27,0.03
2013-4-24,81,74,69,73,69,66,93,86,73,30.09,29.99,14,6,23,0.63
2013-4-25,82,75,71,72,69,66,89,80,67,30.07,29.99,15,7,22,0.02
2013-4-26,82,75,71,69,67,65,85,76,59,30.06,29.98,19,8,25,0.00
2013-4-27,84,76,70,69,66,64,85,73,52,30.05,29.96,11,3,17,0.00
2013-4-28,82,75,71,71,68,65,86,79,67,30.04,29.93,9,3,13,0.00
2013-4-29,83,77,73,73,71,69,88,81,69,29.99,29.90,11,6,16,0.00
2013-4-30,84,76,71,72,70,68,90,81,64,30.03,29.92,7,1,12,0.00
2013-5-1,84,77,73,70,69,68,86,77,64,30.02,29.99,8,3,16,0.00
2013-5-5,75,74,73,71,69,67,90,84,77,29.90,29.79,19,12,26,0.14
2013-5-6,79,75,72,66,65,64,77,72,62,29.96,29.86,16,8,20,0.50
2013-5-7,80,76,72,69,67,65,80,73,67,29.97,29.91,10,3,13,0.00
2013-5-8,79,78,77,69,67,66,73,70,68,29.96,29.93,8,2,10,0.00
2013-5-9,82,76,72,71,69,67,87,78,69,30.07,29.96,13,5,15,0.00
2013-5-10,82,79,72,73,70,68,87,76,66,30.08,30.02,13,6,20,0.07
2013-5-11,81,76,72,69,66,-100,85,73,65,30.09,30.03,17,10,25,0.03
2013-5-12,78,75,70,70,69,68,93,82,74,30.11,30.02,14,7,22,0.12
2013-5-13,81,77,73,71,70,68,88,79,70,30.08,30.00,20,8,23,0.00
2013-5-14,82,81,78,72,72,71,78,74,71,30.09,30.05,17,10,28,0.00
2013-5-15,82,79,76,72,70,69,81,75,68,30.12,30.07,15,7,24,0.00
2013-5-16,80,79,78,69,69,68,74,72,70,30.06,30.05,11,10,19,0.00
2013-5-17,85,79,73,71,66,-100,80,71,58,30.07,29.99,16,7,22,0.00
2013-5-18,83,80,75,73,70,68,85,73,68,30.04,29.96,11,5,14,0.01
2013-5-19,78,73,71,72,69,67,90,86,69,29.94,29.91,9,4,15,0.57
2013-5-20,80,76,71,68,66,64,78,71,63,29.96,29.90,9,3,16,0.51
2013-5-21,81,78,76,69,67,65,75,70,65,29.99,29.91,8,3,12,0.00
2013-5-22,88,81,72,72,70,67,87,70,54,30.00,29.96,8,3,13,0.00
2013-5-23,85,83,81,74,73,71,76,72,67,30.01,29.94,10,7,17,0.00
2013-5-24,84,79,75,72,70,67,79,74,67,30.07,30.02,13,7,19,0.00
2013-5-25,82,80,77,72,70,69,78,74,70,30.04,30.01,14,9,25,0.01
2013-5-27,84,80,74,72,70,67,83,72,64,30.09,29.99,17,7,22,0.01
2013-5-28,84,79,74,73,71,70,88,77,67,30.07,30.03,16,6,23,0.01
2013-6-1,79,77,75,72,71,70,86,82,79,30.08,30.01,17,9,25,0.00
2013-6-2,82,78,74,74,72,70,91,81,72,30.09,30.04,19,10,27,0.05
2013-6-3,81,78,76,69,67,66,75,71,66,30.05,30.01,12,7,20,0.00
2013-6-4,82,77,76,70,69,68,78,75,66,30.02,29.99,16,10,28,0.00
2013-6-6,84,80,73,69,67,65,77,65,59,30.00,29.94,18,7,23,0.00
2013-6-7,81,79,77,69,68,67,76,70,63,29.97,29.96,14,7,26,0.00
2013-6-8,84,80,75,70,69,67,77,69,63,30.03,29.98,17,8,24,0.00
2013-6-9,76,74,73,69,68,67,82,80,77,30.09,30.06,6,-32,14,0.00
2013-6-10,82,76,73,71,69,67,83,78,67,30.08,29.99,9,2,14,0.00
2013-6-11,85,77,74,71,69,68,84,77,62,30.04,29.97,8,2,19,0.00
2013-6-12,83,77,73,72,69,66,85,77,66,30.10,30.00,10,3,16,0.00
2013-6-13,82,76,73,73,70,67,89,81,66,30.11,30.05,12,3,16,0.07
2013-6-14,82,75,70,72,69,67,93,82,68,30.10,30.00,11,3,20,0.49
2013-6-15,82,76,72,71,68,67,87,78,65,30.03,29.93,10,2,17,0.02
2013-6-16,84,77,72,71,69,67,85,77,64,30.03,29.93,10,2,18,0.02
2013-6-17,84,77,72,71,69,67,87,77,63,30.09,29.98,13,3,16,0.02
2013-6-18,85,77,72,72,70,66,87,78,65,30.08,30.01,9,2,17,0.02
2013-6-19,83,77,73,72,69,67,84,77,65,30.07,30.01,8,2,13,0.00